createdAt,value
2024-01-17T00:00:32.845Z,11.32
2024-01-17T00:02:59.672Z,13.40
2024-01-17T00:05:26.322Z,14.95
2024-01-17T00:07:53.359Z,14.30
2024-01-17T00:10:20.253Z,12.98
2024-01-17T00:12:46.897Z,12.10
2024-01-17T00:15:13.580Z,11.40
2024-01-17T00:17:40.516Z,8.63
2024-01-17T00:20:08.078Z,12.75
2024-01-17T00:22:34.653Z,9.40
2024-01-17T00:25:01.375Z,8.20
2024-01-17T00:27:28.028Z,8.07
2024-01-17T00:29:58.976Z,6.70
2024-01-17T00:32:26.067Z,8.32
2024-01-17T00:34:53.262Z,6.72
2024-01-17T00:37:19.973Z,8.27
2024-01-17T00:39:46.570Z,9.30
2024-01-17T00:42:13.159Z,11.30
2024-01-17T00:44:41.828Z,9.07
2024-01-17T00:47:08.642Z,10.73
2024-01-17T00:49:35.906Z,6.32
2024-01-17T00:52:02.522Z,9.77
2024-01-17T00:54:29.155Z,7.30
2024-01-17T00:56:55.758Z,10.45
2024-01-17T00:59:22.406Z,7.63
2024-01-17T01:01:49.035Z,7.05
2024-01-17T01:04:15.640Z,9.60
2024-01-17T01:06:42.245Z,8.35
2024-01-17T01:09:08.913Z,10.40
2024-01-17T01:11:37.181Z,9.38
2024-01-17T01:14:04.203Z,8.18
2024-01-17T01:16:30.878Z,8.77
2024-01-17T01:18:57.673Z,11.82
2024-01-17T01:21:24.395Z,9.07
2024-01-17T01:23:51.195Z,8.38
2024-01-17T01:26:17.844Z,7.25
2024-01-17T01:28:44.548Z,7.43
2024-01-17T01:31:11.275Z,14.93
2024-01-17T01:33:38.205Z,12.45
2024-01-17T01:36:07.171Z,13.93
2024-01-17T01:38:34.140Z,12.45
2024-01-17T01:41:00.804Z,13.07
2024-01-17T01:43:27.412Z,12.25
2024-01-17T01:46:16.650Z,12.82
2024-01-17T01:48:44.566Z,16.02
2024-01-17T01:51:14.601Z,12.20
2024-01-17T01:53:43.939Z,12.68
2024-01-17T01:56:13.949Z,12.73
2024-01-17T01:58:44.527Z,11.80
2024-01-17T02:01:12.514Z,12.68
2024-01-17T02:03:42.285Z,9.70
2024-01-17T02:06:09.235Z,12.02
2024-01-17T02:08:36.076Z,11.23
2024-01-17T02:11:02.802Z,8.07
2024-01-17T02:13:29.533Z,10.38
2024-01-17T02:15:56.730Z,10.43
2024-01-17T02:18:23.815Z,14.45
2024-01-17T02:20:50.459Z,11.45
2024-01-17T02:23:29.688Z,10.00
2024-01-17T02:25:58.308Z,10.73
2024-01-17T02:28:27.070Z,10.27
2024-01-17T02:30:53.928Z,10.85
2024-01-17T02:33:21.217Z,10.43
2024-01-17T02:35:47.974Z,10.30
2024-01-17T02:38:14.595Z,9.40
2024-01-17T02:40:41.178Z,10.23
2024-01-17T02:43:07.832Z,8.50
2024-01-17T02:45:34.721Z,7.28
2024-01-17T02:48:01.694Z,7.63
2024-01-17T02:50:29.036Z,10.43
2024-01-17T02:52:55.634Z,8.55
2024-01-17T02:55:24.329Z,8.88
2024-01-17T02:57:52.259Z,8.00
2024-01-17T03:00:19.552Z,6.90
2024-01-17T03:02:46.455Z,9.05
2024-01-17T03:05:13.114Z,9.43
2024-01-17T03:07:39.913Z,8.95
2024-01-17T03:10:08.364Z,8.13
2024-01-17T03:12:34.940Z,8.13
2024-01-17T03:15:01.761Z,10.30
2024-01-17T03:17:28.558Z,8.95
2024-01-17T03:19:55.325Z,9.57
2024-01-17T03:22:21.936Z,9.02
2024-01-17T03:24:48.578Z,8.27
2024-01-17T03:27:15.246Z,14.57
2024-01-17T03:29:41.903Z,8.60
2024-01-17T03:32:08.826Z,13.68
2024-01-17T03:34:35.716Z,10.77
2024-01-17T03:37:04.938Z,8.10
2024-01-17T03:39:34.763Z,11.32
2024-01-17T03:42:01.835Z,11.02
2024-01-17T03:44:28.606Z,10.38
2024-01-17T03:46:55.244Z,10.48
2024-01-17T03:49:21.918Z,10.10
2024-01-17T03:51:48.536Z,11.77
2024-01-17T03:54:15.197Z,9.88
2024-01-17T03:56:41.818Z,12.55
2024-01-17T03:59:08.409Z,12.93
2024-01-17T04:01:42.756Z,12.93
2024-01-17T04:04:09.322Z,16.33
2024-01-17T04:06:35.951Z,12.57
2024-01-17T04:09:02.684Z,11.48
2024-01-17T04:11:29.509Z,14.23
2024-01-17T04:13:56.999Z,11.82
2024-01-17T04:16:23.600Z,15.70
2024-01-17T04:18:50.486Z,13.85
2024-01-17T04:21:19.555Z,14.38
2024-01-17T04:23:48.417Z,10.93
2024-01-17T04:26:26.647Z,11.98
2024-01-17T04:28:54.206Z,14.18
2024-01-17T04:31:28.630Z,12.70
2024-01-17T04:33:56.125Z,13.10
2024-01-17T04:36:23.780Z,12.45
2024-01-17T04:38:50.392Z,11.75
2024-01-17T04:41:17.656Z,10.95
2024-01-17T04:43:47.741Z,11.35
2024-01-17T04:46:16.324Z,12.70
2024-01-17T04:48:44.141Z,12.95
2024-01-17T04:51:13.750Z,12.27
2024-01-17T04:53:43.505Z,12.82
2024-01-17T04:56:11.667Z,11.63
2024-01-17T04:58:38.594Z,10.32
2024-01-17T05:01:06.731Z,8.77
2024-01-17T05:03:34.996Z,17.92
2024-01-17T05:06:02.841Z,19.83
2024-01-17T05:08:30.570Z,16.05
2024-01-17T05:10:57.356Z,13.13
2024-01-17T05:13:24.070Z,17.52
2024-01-17T05:15:51.144Z,13.38
2024-01-17T05:18:17.842Z,12.52
2024-01-17T05:20:44.685Z,13.77
2024-01-17T05:23:11.601Z,11.55
2024-01-17T05:25:38.178Z,16.58
2024-01-17T05:28:07.326Z,14.90
2024-01-17T05:30:34.315Z,11.52
2024-01-17T05:33:01.773Z,13.77
2024-01-17T05:35:30.167Z,16.45
2024-01-17T05:37:57.014Z,13.05
2024-01-17T05:40:23.627Z,18.30
2024-01-17T05:42:50.784Z,13.00
2024-01-17T05:45:17.688Z,14.90
2024-01-17T05:47:44.965Z,16.33
2024-01-17T05:50:13.164Z,14.88
2024-01-17T05:52:41.334Z,15.25
2024-01-17T05:55:12.088Z,22.08
2024-01-17T05:57:39.285Z,12.77
2024-01-17T06:00:11.053Z,11.27
2024-01-17T06:02:39.178Z,12.63
2024-01-17T06:05:06.968Z,17.42
2024-01-17T06:07:33.609Z,12.45
2024-01-17T06:10:00.477Z,18.98
2024-01-17T06:12:27.218Z,23.30
2024-01-17T06:14:53.849Z,16.08
2024-01-17T06:17:20.869Z,25.88
2024-01-17T06:19:47.536Z,29.58
2024-01-17T06:22:19.835Z,27.67
2024-01-17T06:24:47.262Z,18.08
2024-01-17T06:27:15.375Z,25.40
2024-01-17T06:29:43.322Z,25.33
2024-01-17T06:32:10.059Z,19.38
2024-01-17T06:34:38.387Z,29.23
2024-01-17T06:37:05.975Z,22.70
2024-01-17T06:39:33.360Z,21.33
2024-01-17T06:42:00.242Z,21.65
2024-01-17T06:44:28.447Z,24.17
2024-01-17T06:46:55.177Z,23.00
2024-01-17T06:49:22.031Z,43.03
2024-01-17T06:51:48.922Z,27.88
2024-01-17T06:54:16.163Z,29.48
2024-01-17T06:56:42.926Z,20.77
2024-01-17T06:59:09.597Z,21.98
2024-01-17T07:01:36.795Z,22.65
2024-01-17T07:04:03.655Z,30.48
2024-01-17T07:06:30.468Z,17.55
2024-01-17T07:08:57.194Z,18.58
2024-01-17T07:11:23.818Z,10.85
2024-01-17T07:13:50.388Z,14.68
2024-01-17T07:16:17.172Z,14.32
2024-01-17T07:18:44.084Z,8.65
2024-01-17T07:21:11.452Z,11.50
2024-01-17T07:23:41.352Z,19.25
2024-01-17T07:26:09.982Z,10.90
2024-01-17T07:28:36.639Z,11.15
2024-01-17T07:31:03.832Z,9.38
2024-01-17T07:33:30.652Z,8.00
2024-01-17T07:35:57.401Z,6.57
2024-01-17T07:38:24.704Z,7.63
2024-01-17T07:40:51.572Z,4.72
2024-01-17T07:43:18.283Z,6.82
2024-01-17T07:45:44.914Z,5.30
2024-01-17T07:48:12.372Z,10.18
2024-01-17T07:50:40.453Z,6.80
2024-01-17T07:53:08.871Z,4.40
2024-01-17T07:55:35.551Z,4.10
2024-01-17T07:58:02.245Z,5.05
2024-01-17T08:00:30.072Z,4.00
2024-01-17T08:02:56.959Z,4.45
2024-01-17T08:05:23.689Z,5.45
2024-01-17T08:07:50.388Z,6.03
2024-01-17T08:10:17.916Z,5.95
2024-01-17T08:12:45.812Z,3.28
2024-01-17T08:15:12.645Z,36.00
2024-01-17T08:17:39.511Z,24.88
2024-01-17T08:20:08.326Z,12.65
2024-01-17T08:22:35.401Z,5.20
2024-01-17T08:25:02.420Z,2.72
2024-01-17T08:27:29.178Z,4.75
2024-01-17T08:29:56.298Z,6.13
2024-01-17T08:32:23.181Z,19.08
2024-01-17T08:34:49.959Z,50.35
2024-01-17T08:37:16.750Z,24.17
2024-01-17T08:39:44.788Z,24.80
2024-01-17T08:42:14.987Z,18.70
2024-01-17T08:44:44.063Z,31.40
2024-01-17T08:47:10.900Z,27.52
2024-01-17T08:49:41.288Z,36.15
2024-01-17T08:52:09.122Z,21.98
2024-01-17T08:54:38.605Z,16.45
2024-01-17T08:57:05.801Z,15.02
2024-01-17T08:59:35.027Z,16.30
2024-01-17T09:02:03.648Z,18.67
2024-01-17T09:04:31.049Z,12.70
2024-01-17T09:06:57.822Z,8.93
2024-01-17T09:09:26.947Z,18.95
2024-01-17T09:11:54.674Z,10.57
2024-01-17T09:14:22.801Z,2.08
2024-01-17T09:16:51.524Z,4.40
2024-01-17T09:19:19.574Z,5.75
2024-01-17T09:21:46.305Z,4.85
2024-01-17T09:24:13.048Z,3.30
2024-01-17T09:26:40.101Z,8.70
2024-01-17T09:29:06.750Z,2.30
2024-01-17T09:31:33.340Z,2.53
2024-01-17T09:34:00.122Z,5.13
2024-01-17T09:36:27.050Z,3.85
2024-01-17T09:38:54.214Z,0.98
2024-01-17T09:41:21.173Z,1.45
2024-01-17T09:43:47.962Z,1.75
2024-01-17T09:46:15.529Z,1.30
2024-01-17T09:48:42.688Z,1.77
2024-01-17T09:51:17.706Z,1.20
2024-01-17T09:53:52.016Z,2.28
2024-01-17T09:56:20.284Z,1.67
2024-01-17T09:58:51.354Z,1.45
2024-01-17T10:01:19.939Z,1.90
2024-01-17T10:03:47.978Z,1.15
2024-01-17T10:06:17.237Z,1.30
2024-01-17T10:08:46.424Z,0.88
2024-01-17T10:11:13.619Z,1.20
2024-01-17T10:13:40.227Z,1.80
2024-01-17T10:16:06.888Z,0.90
2024-01-17T10:18:34.212Z,1.40
2024-01-17T10:21:01.194Z,1.42
2024-01-17T10:23:27.902Z,1.00
2024-01-17T10:25:54.584Z,4.07
2024-01-17T10:28:21.187Z,10.13
2024-01-17T10:30:47.936Z,10.88
2024-01-17T10:33:14.743Z,22.88
2024-01-17T10:35:42.189Z,13.60
2024-01-17T10:38:09.566Z,17.23
2024-01-17T10:40:36.200Z,14.15
2024-01-17T10:43:10.631Z,15.80
2024-01-17T10:45:40.554Z,15.73
2024-01-17T10:48:10.972Z,28.40
2024-01-17T10:50:37.933Z,5.20
2024-01-17T10:53:06.733Z,11.32
2024-01-17T10:55:38.073Z,3.47
2024-01-17T10:58:12.179Z,7.80
2024-01-17T11:00:42.022Z,3.08
2024-01-17T11:03:10.795Z,3.97
2024-01-17T11:05:50.465Z,11.82
2024-01-17T11:08:20.063Z,5.78
2024-01-17T11:10:48.025Z,4.80
2024-01-17T11:13:20.265Z,6.25
2024-01-17T11:15:49.520Z,6.43
2024-01-17T11:18:17.422Z,5.45
2024-01-17T11:20:45.132Z,5.45
2024-01-17T11:23:24.166Z,4.47
2024-01-17T11:26:29.966Z,3.40
2024-01-17T11:29:14.533Z,2.95
2024-01-17T11:32:00.603Z,2.28
2024-01-17T11:34:27.432Z,4.38
2024-01-17T11:36:54.300Z,2.30
2024-01-17T11:39:21.175Z,2.53
2024-01-17T11:41:51.207Z,3.38
2024-01-17T11:44:19.640Z,3.75
2024-01-17T11:46:50.670Z,5.95
2024-01-17T11:49:37.986Z,4.95
2024-01-17T11:52:08.803Z,4.25
2024-01-17T11:54:35.484Z,2.90
2024-01-17T11:57:04.701Z,3.83
2024-01-17T11:59:33.973Z,5.00
2024-01-17T12:02:00.732Z,3.55
2024-01-17T12:04:27.352Z,4.10
2024-01-17T12:06:54.159Z,3.97
2024-01-17T12:09:24.132Z,2.70
2024-01-17T12:11:53.622Z,3.30
2024-01-17T12:14:20.589Z,4.10
2024-01-17T12:16:48.018Z,3.65
2024-01-17T12:19:16.237Z,7.80
2024-01-17T12:21:43.609Z,2.55
2024-01-17T12:24:14.096Z,2.30
2024-01-17T12:26:40.852Z,5.22
2024-01-17T12:29:08.437Z,3.97
2024-01-17T12:31:35.380Z,3.05
2024-01-17T12:34:03.150Z,1.92
2024-01-17T12:36:31.981Z,3.67
2024-01-17T12:39:03.815Z,2.78
2024-01-17T12:41:30.426Z,3.83
2024-01-17T12:43:57.308Z,3.75
2024-01-17T12:46:24.274Z,2.45
2024-01-17T12:49:00.147Z,2.45
2024-01-17T12:51:28.079Z,1.77
2024-01-17T12:53:55.616Z,3.55
2024-01-17T12:56:25.461Z,2.70
2024-01-17T12:58:53.690Z,4.57
2024-01-17T13:01:26.369Z,2.15
2024-01-17T13:04:09.307Z,2.97
2024-01-17T13:06:50.204Z,6.30
2024-01-17T13:09:22.013Z,2.13
2024-01-17T13:11:53.377Z,5.82
2024-01-17T13:14:22.625Z,2.92
2024-01-17T13:16:49.476Z,2.50
2024-01-17T13:19:16.793Z,2.25
2024-01-17T13:21:51.460Z,5.85
2024-01-17T13:24:18.481Z,1.88
2024-01-17T13:26:45.702Z,3.05
2024-01-17T13:29:14.188Z,2.50
2024-01-17T13:31:42.483Z,2.25
2024-01-17T13:34:10.566Z,3.92
2024-01-17T13:36:37.508Z,2.63
2024-01-17T13:39:06.291Z,4.15
2024-01-17T13:41:34.890Z,2.85
2024-01-17T13:44:01.956Z,2.22
2024-01-17T13:46:28.743Z,3.15
2024-01-17T13:48:55.672Z,4.18
2024-01-17T13:51:25.627Z,4.68
2024-01-17T13:53:55.110Z,3.22
2024-01-17T13:56:22.230Z,6.20
2024-01-17T13:58:48.990Z,4.72
2024-01-17T14:01:20.160Z,3.25
2024-01-17T14:03:48.382Z,2.55
2024-01-17T14:06:15.898Z,2.90
2024-01-17T14:08:43.050Z,2.28
2024-01-17T14:11:14.308Z,2.47
2024-01-17T14:13:43.550Z,5.65
2024-01-17T14:16:11.998Z,3.70
2024-01-17T14:18:38.976Z,4.50
2024-01-17T14:21:06.469Z,5.78
2024-01-17T14:23:33.139Z,5.25
2024-01-17T14:25:59.720Z,3.33
2024-01-17T14:28:26.288Z,5.45
2024-01-17T14:30:52.933Z,4.40
2024-01-17T14:33:21.584Z,2.22
2024-01-17T14:35:48.838Z,2.90
2024-01-17T14:38:15.556Z,1.67
2024-01-17T14:40:42.550Z,2.50
2024-01-17T14:43:09.134Z,4.13
2024-01-17T14:45:35.753Z,3.40
2024-01-17T14:48:02.874Z,2.58
2024-01-17T14:50:29.538Z,2.33
2024-01-17T14:52:56.154Z,1.48
2024-01-17T14:55:22.839Z,4.75
2024-01-17T14:57:50.442Z,3.25
2024-01-17T15:00:21.442Z,4.63
2024-01-17T15:02:49.642Z,6.63
2024-01-17T15:05:17.915Z,4.75
2024-01-17T15:07:45.210Z,3.75
2024-01-17T15:10:12.151Z,3.53
2024-01-17T15:12:39.210Z,2.58
2024-01-17T15:15:08.077Z,6.25
2024-01-17T15:17:34.942Z,3.28
2024-01-17T15:20:01.724Z,3.63
2024-01-17T15:22:31.097Z,2.70
2024-01-17T15:24:58.109Z,3.25
2024-01-17T15:27:24.835Z,5.32
2024-01-17T15:29:52.889Z,1.77
2024-01-17T15:32:19.734Z,3.10
2024-01-17T15:34:46.573Z,4.82
2024-01-17T15:37:13.265Z,3.88
2024-01-17T15:39:40.184Z,3.47
2024-01-17T15:42:07.482Z,2.20
2024-01-17T15:44:34.637Z,3.45
2024-01-17T15:47:02.424Z,3.72
2024-01-17T15:49:29.592Z,2.65
2024-01-17T15:51:56.461Z,2.35
2024-01-17T15:54:23.171Z,4.03
2024-01-17T15:56:49.772Z,1.70
2024-01-17T15:59:16.373Z,5.03
2024-01-17T16:01:42.958Z,2.10
2024-01-17T16:04:11.906Z,2.13
2024-01-17T16:06:39.600Z,3.15
2024-01-17T16:09:12.214Z,1.95
2024-01-17T16:11:39.068Z,2.42
2024-01-17T16:14:06.262Z,5.97
2024-01-17T16:16:32.927Z,7.20
2024-01-17T16:18:59.840Z,1.60
2024-01-17T16:21:26.788Z,5.88
2024-01-17T16:23:55.166Z,2.15
2024-01-17T16:26:21.984Z,3.90
2024-01-17T16:28:49.255Z,1.50
2024-01-17T16:31:15.880Z,3.35
2024-01-17T16:33:42.720Z,3.50
2024-01-17T16:36:09.582Z,4.35
2024-01-17T16:38:36.457Z,2.33
2024-01-17T16:41:03.169Z,4.07
2024-01-17T16:43:29.838Z,2.83
2024-01-17T16:45:58.437Z,2.00
2024-01-17T16:48:25.472Z,2.80
2024-01-17T16:50:52.403Z,1.52
2024-01-17T16:53:19.098Z,2.72
2024-01-17T16:55:45.745Z,2.95
2024-01-17T16:58:12.369Z,3.45
2024-01-17T17:00:39.193Z,1.58
2024-01-17T17:03:06.043Z,3.22
2024-01-17T17:05:32.947Z,2.15
2024-01-17T17:08:00.532Z,1.70
2024-01-17T17:10:27.650Z,2.35
2024-01-17T17:12:54.521Z,2.88
2024-01-17T17:15:21.306Z,1.70
2024-01-17T17:17:48.029Z,1.20
2024-01-17T17:20:14.848Z,1.20
2024-01-17T17:22:43.883Z,1.10
2024-01-17T17:25:11.525Z,1.58
2024-01-17T17:27:38.265Z,1.15
2024-01-17T17:30:05.633Z,1.52
2024-01-17T17:32:32.443Z,1.85
2024-01-17T17:34:59.334Z,1.98
2024-01-17T17:37:27.124Z,1.20
2024-01-17T17:39:53.864Z,1.60
2024-01-17T17:42:20.596Z,2.25
2024-01-17T17:44:47.286Z,1.50
2024-01-17T17:47:14.715Z,0.85
2024-01-17T17:49:42.551Z,0.80
2024-01-17T17:52:09.734Z,2.70
2024-01-17T17:54:36.422Z,0.63
2024-01-17T17:57:03.620Z,2.45
2024-01-17T17:59:30.269Z,0.75
2024-01-17T18:01:57.241Z,0.28
2024-01-17T18:04:27.632Z,1.70
2024-01-17T18:06:54.970Z,1.10
2024-01-17T18:09:22.193Z,1.05
2024-01-17T18:11:49.078Z,3.22
2024-01-17T18:14:15.984Z,4.55
2024-01-17T18:16:42.552Z,1.50
2024-01-17T18:19:09.360Z,0.77
2024-01-17T18:21:38.511Z,2.53
2024-01-17T18:24:05.481Z,1.33
2024-01-17T18:26:32.596Z,1.75
2024-01-17T18:28:59.242Z,0.82
2024-01-17T18:31:25.931Z,0.40
2024-01-17T18:33:52.664Z,0.90
2024-01-17T18:36:19.452Z,1.20
2024-01-17T18:38:46.101Z,1.20
2024-01-17T18:41:13.378Z,1.23
2024-01-17T18:43:40.954Z,1.80
2024-01-17T18:46:08.542Z,1.63
2024-01-17T18:48:36.399Z,1.00
2024-01-17T18:51:03.651Z,1.52
2024-01-17T18:53:30.423Z,1.60
2024-01-17T18:55:57.080Z,0.68
2024-01-17T18:58:23.727Z,1.15
2024-01-17T19:00:50.478Z,0.45
2024-01-17T19:03:17.485Z,0.82
2024-01-17T19:05:44.358Z,0.38
2024-01-17T19:08:11.202Z,1.33
2024-01-17T19:10:37.906Z,1.33
2024-01-17T19:13:04.603Z,1.63
2024-01-17T19:15:31.288Z,0.73
2024-01-17T19:17:58.068Z,1.02
2024-01-17T19:20:24.832Z,1.10
2024-01-17T19:22:51.409Z,0.73
2024-01-17T19:25:20.051Z,1.33
2024-01-17T19:27:47.588Z,0.98
2024-01-17T19:30:17.007Z,0.43
2024-01-17T19:32:44.686Z,0.52
2024-01-17T19:35:15.075Z,0.57
2024-01-17T19:37:43.880Z,0.90
2024-01-17T19:40:12.207Z,1.30
2024-01-17T19:42:39.887Z,1.35
2024-01-17T19:45:07.489Z,2.25
2024-01-17T19:47:34.851Z,1.02
2024-01-17T19:50:02.287Z,0.68
2024-01-17T19:52:30.400Z,0.73
2024-01-17T19:54:57.063Z,0.25
2024-01-17T19:57:24.610Z,0.75
2024-01-17T19:59:51.975Z,0.88
2024-01-17T20:02:19.219Z,4.75
2024-01-17T20:04:46.039Z,0.30
2024-01-17T20:07:13.388Z,0.30
2024-01-17T20:09:43.385Z,0.65
2024-01-17T20:12:11.328Z,0.57
2024-01-17T20:14:38.209Z,1.55
2024-01-17T20:17:05.248Z,0.35
2024-01-17T20:19:32.724Z,0.73
2024-01-17T20:21:59.766Z,0.10
2024-01-17T20:24:26.834Z,0.15
2024-01-17T20:26:53.830Z,1.15
2024-01-17T20:29:20.799Z,0.30
2024-01-17T20:31:49.121Z,0.13
2024-01-17T20:34:15.921Z,0.57
2024-01-17T20:36:42.536Z,1.65
2024-01-17T20:39:12.036Z,0.52
2024-01-17T20:41:39.377Z,0.50
2024-01-17T20:44:06.227Z,0.82
2024-01-17T20:46:33.099Z,0.40
2024-01-17T20:49:02.382Z,0.50
2024-01-17T20:51:31.935Z,0.38
2024-01-17T20:53:58.816Z,1.25
2024-01-17T20:56:25.478Z,0.10
2024-01-17T20:58:54.904Z,0.47
2024-01-17T21:01:23.003Z,0.70
2024-01-17T21:03:50.147Z,0.40
2024-01-17T21:06:16.762Z,2.20
2024-01-17T21:08:43.657Z,0.65
2024-01-17T21:11:10.303Z,0.60
2024-01-17T21:13:36.870Z,0.32
2024-01-17T21:16:03.527Z,0.20
2024-01-17T21:18:30.260Z,2.25
2024-01-17T21:20:57.482Z,0.75
2024-01-17T21:23:28.171Z,0.20
2024-01-17T21:25:54.884Z,0.27
2024-01-17T21:28:21.601Z,0.28
2024-01-17T21:30:48.222Z,0.28
2024-01-17T21:33:15.022Z,0.38
2024-01-17T21:35:41.659Z,0.77
2024-01-17T21:38:08.256Z,0.25
2024-01-17T21:40:36.933Z,0.70
2024-01-17T21:43:03.702Z,0.15
2024-01-17T21:45:30.344Z,0.10
2024-01-17T21:47:57.422Z,1.27
2024-01-17T21:50:24.145Z,0.25
2024-01-17T21:52:50.978Z,0.10
2024-01-17T21:55:17.531Z,0.25
2024-01-17T21:57:44.117Z,0.10
2024-01-17T22:00:11.197Z,0.10
2024-01-17T22:02:40.746Z,0.10
2024-01-17T22:05:07.386Z,1.90
2024-01-17T22:07:34.352Z,0.40
2024-01-17T22:10:02.659Z,0.20
2024-01-17T22:12:29.277Z,1.45
2024-01-17T22:14:55.994Z,0.98
2024-01-17T22:17:22.704Z,1.90
2024-01-17T22:19:50.256Z,0.40
2024-01-17T22:22:16.862Z,0.22
2024-01-17T22:24:43.438Z,0.20
2024-01-17T22:27:10.098Z,1.95
2024-01-17T22:29:37.357Z,0.30
2024-01-17T22:32:04.077Z,0.90
2024-01-17T22:34:30.873Z,0.57
2024-01-17T22:36:57.572Z,1.45
2024-01-17T22:39:24.389Z,0.38
2024-01-17T22:41:51.051Z,0.80
2024-01-17T22:44:19.134Z,1.60
2024-01-17T22:46:45.753Z,0.75
2024-01-17T22:49:12.422Z,0.88
2024-01-17T22:51:39.069Z,0.40
2024-01-17T22:54:06.072Z,1.02
2024-01-17T22:56:33.803Z,1.25
2024-01-17T22:59:00.473Z,0.77
2024-01-17T23:01:27.301Z,1.30
2024-01-17T23:03:54.083Z,0.65
2024-01-17T23:06:20.878Z,0.77
2024-01-17T23:08:47.478Z,1.02
2024-01-17T23:11:23.555Z,0.35
2024-01-17T23:13:55.123Z,0.95
2024-01-17T23:16:21.937Z,1.08
2024-01-17T23:18:49.166Z,0.93
2024-01-17T23:21:16.051Z,0.77
2024-01-17T23:23:42.662Z,0.82
2024-01-17T23:26:10.895Z,0.68
2024-01-17T23:28:38.030Z,1.08
2024-01-17T23:31:05.737Z,0.85
2024-01-17T23:33:32.468Z,0.52
2024-01-17T23:36:00.056Z,1.40
2024-01-17T23:38:26.693Z,1.27
2024-01-17T23:40:53.288Z,0.77
2024-01-17T23:43:19.877Z,1.05
2024-01-17T23:45:46.502Z,3.63
2024-01-17T23:48:13.262Z,2.80
2024-01-17T23:50:40.065Z,1.27
2024-01-17T23:53:06.652Z,0.30
2024-01-17T23:55:33.228Z,2.45
2024-01-17T23:57:59.803Z,0.43
